Weather History for KBLM - February, 2013

Change the Weather History Date:

Tuesday, February 19, 2013

  Actual Average Record
Temperature  
Mean Temperature 40 °F -  
Max Temperature 51 °F 41 °F 66 °F (1997)
Min Temperature 28 °F 27 °F 8 °F (2015)
Degree Days  
Heating Degree Days 26    
Moisture  
Dew Point 30 °F    
Average Humidity 70    
Maximum Humidity 100    
Minimum Humidity 44    
Precipitation  
Precipitation 0.07 in - - ()
Sea Level Pressure  
Sea Level Pressure 29.94 in    
Wind  
Wind Speed 8 mph (SSW)    
Max Wind Speed 23 mph    
Max Gust Speed 33 mph    
Visibility 10 miles    
Events      
Averages and records for this station are not official NWS values.
T = Trace of Precipitation, MM = Missing Value Source: NWS Daily Summary

Daily Weather History Graph

Daily Weather History Graph

Search for Another Location

Airport or City:

Trip Planner

Search our weather history database for the weather conditions in past years. The results will help you decide how hot, cold, wet, or windy it might be!

Date:

Astronomy

Feb. 19, 2013 Rise Set
Actual Time 6:44 AM EST 5:37 PM EST
Civil Twilight 6:16 AM EST 6:04 PM EST
Nautical Twilight 5:44 AM EST 6:36 PM EST
Astronomical Twilight 5:13 AM EST 7:07 PM EST
Moon 12:06 PM EST (2/19) 2:13 AM EST (2/19)
Length of Visible Light 11h 48m
Length of Day
10h 53m
Waxing Gibbous, 67% of the Moon is Illuminated
Feb 19
Waxing Gibbous
Feb 25
Full
Mar 4
Last Quarter
Mar 11
New
Mar 19
First Quarter

Hourly Weather History & Observations

Time (EST) Temp. Windchill Dew Point Humidity Pressure Visibility Wind Dir Wind Speed Gust Speed Precip Events Conditions
12:15 AM 28.4 °F 22.2 °F 10.4 °F 47% 30.22 in 10.0 mi SSW 5.8 mph - N/A   Clear
12:35 AM 28.4 °F 22.2 °F 10.4 °F 47% 30.21 in 10.0 mi South 5.8 mph - N/A   Clear
12:55 AM 28.4 °F 21.2 °F 12.2 °F 51% 30.20 in 10.0 mi SSW 6.9 mph - N/A   Clear
1:15 AM 28.4 °F 22.2 °F 12.2 °F 51% 30.20 in 10.0 mi SSW 5.8 mph - N/A   Clear
1:35 AM 28.4 °F 22.2 °F 12.2 °F 51% 30.19 in 10.0 mi SSW 5.8 mph - N/A   Clear
1:55 AM 30.2 °F 24.3 °F 12.2 °F 47% 30.18 in 10.0 mi SSW 5.8 mph - N/A   Clear
2:15 AM 30.2 °F 25.4 °F 12.2 °F 47% 30.17 in 10.0 mi South 4.6 mph - N/A   Clear
2:35 AM 30.2 °F 25.4 °F 12.2 °F 47% 30.16 in 10.0 mi South 4.6 mph - N/A   Clear
2:55 AM 30.2 °F 26.7 °F 15.8 °F 55% 30.15 in 10.0 mi South 3.5 mph - N/A   Clear
3:15 AM 30.2 °F 25.4 °F 17.6 °F 60% 30.14 in 10.0 mi South 4.6 mph - N/A   Clear
3:35 AM 30.2 °F 23.4 °F 19.4 °F 64% 30.14 in 10.0 mi SSW 6.9 mph - N/A   Clear
3:55 AM 30.2 °F 24.3 °F 21.2 °F 69% 30.13 in 10.0 mi SSW 5.8 mph - N/A   Clear
4:15 AM 32.0 °F 25.6 °F 23.0 °F 69% 30.13 in 10.0 mi SW 6.9 mph - N/A   Clear
4:35 AM 32.0 °F 27.5 °F 23.0 °F 69% 30.13 in 10.0 mi SW 4.6 mph - N/A   Clear
4:55 AM 30.2 °F 23.4 °F 24.8 °F 80% 30.12 in 10.0 mi SSW 6.9 mph - N/A   Clear
5:15 AM 30.2 °F 26.7 °F 23.0 °F 75% 30.10 in 10.0 mi SSW 3.5 mph - N/A   Clear
5:35 AM 30.2 °F 25.4 °F 24.8 °F 80% 30.09 in 10.0 mi SSW 4.6 mph - N/A   Clear
5:55 AM 30.2 °F 24.3 °F 24.8 °F 80% 30.09 in 10.0 mi SSW 5.8 mph - N/A   Clear
6:15 AM 32.0 °F 27.5 °F 24.8 °F 75% 30.08 in 10.0 mi South 4.6 mph - N/A   Clear
6:55 AM 33.8 °F 28.6 °F 24.8 °F 70% 30.06 in 10.0 mi South 5.8 mph - N/A   Clear
7:15 AM 33.8 °F 27.7 °F 26.6 °F 75% 30.06 in 10.0 mi SSW 6.9 mph - N/A   Clear
7:35 AM 35.6 °F 28.6 °F 26.6 °F 70% 30.07 in 10.0 mi SSW 9.2 mph - N/A   Clear
7:55 AM 37.4 °F 31.4 °F 26.6 °F 65% 30.07 in 10.0 mi SSW 8.1 mph - N/A   Clear
8:15 AM 37.4 °F 31.4 °F 26.6 °F 65% 30.07 in 10.0 mi SSW 8.1 mph - N/A   Clear
8:35 AM 39.2 °F 33.6 °F 26.6 °F 61% 30.06 in 10.0 mi SSW 8.1 mph - N/A   Clear
8:55 AM 39.2 °F 32.5 °F 26.6 °F 61% 30.05 in 10.0 mi SSW 10.4 mph - N/A   Clear
9:15 AM 41.0 °F 35.8 °F 26.6 °F 57% 30.03 in 10.0 mi SSW 8.1 mph - N/A   Clear
9:35 AM 44.6 °F 38.8 °F 26.6 °F 49% 30.02 in 10.0 mi SSW 11.5 mph - N/A   Clear
9:55 AM 46.4 °F 40.7 °F 26.6 °F 46% 30.01 in 10.0 mi SSW 12.7 mph 17.3 mph N/A   Clear
10:35 AM 48.2 °F - 28.4 °F 46% 29.98 in 10.0 mi SSE 10.4 mph 16.1 mph N/A   Clear
10:55 AM 50.0 °F - 30.2 °F 47% 29.99 in 10.0 mi SSW 13.8 mph 28.8 mph N/A   Clear
11:15 AM 50.0 °F - 30.2 °F 47% 29.97 in 10.0 mi SSW 12.7 mph 28.8 mph N/A   Clear
11:35 AM 51.8 °F - 30.2 °F 44% 29.96 in 10.0 mi SSW 23.0 mph 29.9 mph N/A   Partly Cloudy
11:55 AM 51.8 °F - 30.2 °F 44% 29.95 in 10.0 mi SSW 11.5 mph 23.0 mph N/A   Mostly Cloudy
12:15 PM 51.8 °F - 30.2 °F 44% 29.94 in 10.0 mi SW 11.5 mph 18.4 mph N/A   Mostly Cloudy
12:35 PM 51.8 °F - 30.2 °F 44% 29.93 in 10.0 mi WSW 12.7 mph 18.4 mph N/A   Mostly Cloudy
1:15 PM 46.4 °F 42.9 °F 37.4 °F 71% 29.91 in 10.0 mi SSW 6.9 mph - N/A   Overcast
1:35 PM 46.4 °F 41.1 °F 39.2 °F 76% 29.89 in 10.0 mi SSW 11.5 mph - N/A   Overcast
1:55 PM 46.4 °F 41.5 °F 41.0 °F 81% 29.87 in 10.0 mi South 10.4 mph - N/A   Overcast
2:15 PM 44.6 °F 39.2 °F 41.0 °F 87% 29.85 in 10.0 mi South 10.4 mph - N/A   Mostly Cloudy
2:35 PM 44.6 °F 39.2 °F 41.0 °F 87% 29.84 in 10.0 mi South 10.4 mph - 0.01 in   Overcast
2:55 PM 44.6 °F 39.7 °F 42.8 °F 93% 29.83 in 10.0 mi South 9.2 mph 16.1 mph 0.01 in   Overcast
3:15 PM 44.6 °F 40.7 °F 42.8 °F 93% 29.81 in 9.0 mi South 6.9 mph - N/A   Mostly Cloudy
3:35 PM 44.6 °F 40.2 °F 42.8 °F 93% 29.79 in 10.0 mi South 8.1 mph - N/A   Mostly Cloudy
3:55 PM 44.6 °F 39.2 °F 42.8 °F 93% 29.78 in 9.0 mi South 10.4 mph - 0.01 in   Overcast
4:15 PM 44.6 °F 39.2 °F 42.8 °F 93% 29.76 in 5.0 mi South 10.4 mph - 0.01 in   Overcast
4:35 PM 44.6 °F 39.2 °F 42.8 °F 93% 29.75 in 8.0 mi South 10.4 mph 19.6 mph 0.01 in   Mostly Cloudy
4:55 PM 44.6 °F 38.8 °F 44.6 °F 100% 29.73 in 10.0 mi South 11.5 mph - 0.01 in   Overcast
5:15 PM 46.4 °F 40.7 °F 44.6 °F 93% 29.73 in 8.0 mi SSW 12.7 mph 24.2 mph N/A   Mostly Cloudy
5:35 PM 46.4 °F 41.1 °F 44.6 °F 93% 29.72 in 8.0 mi SSW 11.5 mph - N/A   Overcast
5:55 PM 46.4 °F 42.9 °F 44.6 °F 93% 29.72 in 5.0 mi West 6.9 mph - 0.02 in   Overcast
6:15 PM 46.4 °F 42.9 °F 44.6 °F 93% 29.72 in 6.0 mi West 6.9 mph - 0.02 in   Overcast
7:35 PM 44.6 °F 40.2 °F 44.6 °F 100% 29.70 in 10.0 mi West 8.1 mph - N/A   Overcast
7:55 PM 46.4 °F 41.1 °F 44.6 °F 93% 29.69 in 10.0 mi West 11.5 mph - N/A   Overcast
8:15 PM 46.4 °F 40.7 °F 44.6 °F 93% 29.70 in 10.0 mi West 12.7 mph 18.4 mph N/A   Overcast
8:35 PM 46.4 °F 41.1 °F 42.8 °F 87% 29.71 in 10.0 mi West 11.5 mph 21.9 mph N/A   Overcast
8:55 PM 44.6 °F 38.1 °F 41.0 °F 87% 29.70 in 10.0 mi West 13.8 mph 23.0 mph N/A   Overcast
9:15 PM 44.6 °F 38.4 °F 39.2 °F 81% 29.71 in 10.0 mi West 12.7 mph 21.9 mph N/A   Overcast
9:35 PM 42.8 °F 35.8 °F 37.4 °F 81% 29.71 in 10.0 mi West 13.8 mph 21.9 mph N/A   Overcast
9:55 PM 42.8 °F 35.4 °F 35.6 °F 76% 29.73 in 10.0 mi West 15.0 mph 25.3 mph N/A   Overcast
10:15 PM 42.8 °F 35.1 °F 35.6 °F 76% 29.73 in 10.0 mi West 16.1 mph 23.0 mph N/A   Mostly Cloudy
10:35 PM 41.0 °F 32.2 °F 33.8 °F 76% 29.74 in 10.0 mi WNW 18.4 mph 23.0 mph N/A   Mostly Cloudy
10:55 PM 41.0 °F 31.9 °F 30.2 °F 65% 29.74 in 10.0 mi WNW 19.6 mph 33.4 mph N/A   Scattered Clouds
11:15 PM 39.2 °F 29.6 °F 28.4 °F 65% 29.75 in 10.0 mi WNW 19.6 mph 26.5 mph N/A   Partly Cloudy
11:35 PM 39.2 °F 31.6 °F 28.4 °F 65% 29.75 in 10.0 mi WNW 12.7 mph 25.3 mph N/A   Clear
11:55 PM 37.4 °F 26.4 °F 26.6 °F 65% 29.75 in 10.0 mi West 23.0 mph 26.5 mph N/A   Clear